Time;durP1;ratioP1;P1;durP2;ratioP2;P2;SDS_P1;SDS_P2;PMS_P1;PMS_P2;Temp;Humidity;BMP_temperature;BMP_pressure;BME280_temperature;BME280_humidity;BME280_pressure;Samples;Min_cycle;Max_cycle;Signal;HPM_P1;HPM_P2
2023/06/27 00:01:05;;;;;;;;;;;;;;;16.09;87.99;101895.50;13052545;22;19990;-67
2023/06/27 00:06:08;;;;;;;;;;;;;;;16.29;87.53;101915.38;13053210;22;19990;-67
2023/06/27 00:11:10;;;;;;;;;;;;;;;16.43;85.28;101900.41;13028922;22;19980;-67
2023/06/27 00:16:15;;;;;;;;;;;;;;;16.22;87.61;101911.41;13056458;22;19950;-67
2023/06/27 00:21:18;;;;;;;;;;;;;;;16.14;89.78;101911.06;13030068;22;19925;-67
2023/06/27 00:26:20;;;;;;;;;;;;;;;16.23;87.76;101910.47;13057092;22;19930;-67
2023/06/27 00:31:22;;;;;;;;;;;;;;;16.57;83.55;101905.63;13056155;22;19927;-67
2023/06/27 00:36:25;;;;;;;;;;;;;;;16.61;83.72;101904.50;13056727;22;19969;-67
2023/06/27 00:41:27;;;;;;;;;;;;;;;16.46;85.00;101903.72;13055991;22;19946;-67
2023/06/27 00:46:36;;;;;;;;;;;;;;;16.81;82.11;101903.19;13056658;22;19982;-67
2023/06/27 00:51:39;;;;;;;;;;;;;;;16.87;81.48;101913.38;13029404;22;19925;-67
2023/06/27 00:56:42;;;;;;;;;;;;;;;17.18;78.16;101897.25;13029090;22;19994;-67
2023/06/27 01:01:45;;;;;;;;;;;;;;;17.27;77.80;101899.28;13003149;22;19958;-67
2023/06/27 01:06:59;;;;;;;;;;;;;;;17.09;78.59;101902.22;13056275;22;19989;-67
2023/06/27 01:12:22;;;;;;;;;;;;;;;17.29;76.14;101897.38;13029060;22;19982;-67
2023/06/27 01:17:25;;;;;;;;;;;;;;;17.23;74.07;101892.47;13055176;22;20350;-69
2023/06/27 01:22:29;;;;;;;;;;;;;;;17.44;74.32;101906.91;13028491;22;19919;-69
2023/06/27 01:27:32;;;;;;;;;;;;;;;17.26;76.27;101894.94;13028885;22;19953;-69
2023/06/27 01:32:40;;;;;;;;;;;;;;;17.26;76.28;101893.16;13028673;22;19950;-69
2023/06/27 01:37:44;;;;;;;;;;;;;;;17.05;79.60;101892.78;13055507;22;19919;-68
2023/06/27 01:42:48;;;;;;;;;;;;;;;17.12;79.36;101884.44;13027643;22;20247;-69
2023/06/27 01:47:50;;;;;;;;;;;;;;;17.02;78.96;101869.19;13055474;22;19985;-69
2023/06/27 01:52:52;;;;;;;;;;;;;;;16.82;80.69;101881.06;13054576;22;19994;-69
2023/06/27 01:57:55;;;;;;;;;;;;;;;16.77;85.14;101885.00;12988854;22;19926;-69
2023/06/27 02:02:57;;;;;;;;;;;;;;;16.76;86.95;101873.56;12990372;22;19926;-68
2023/06/27 02:07:59;;;;;;;;;;;;;;;17.03;82.86;101873.53;12991051;22;20039;-68
2023/06/27 02:13:03;;;;;;;;;;;;;;;16.37;88.23;101877.03;12990905;22;19919;-69
2023/06/27 02:18:06;;;;;;;;;;;;;;;16.70;84.68;101876.59;12990653;22;19969;-69
2023/06/27 02:23:08;;;;;;;;;;;;;;;16.55;87.04;101869.69;12989911;22;20333;-68
2023/06/27 02:28:10;;;;;;;;;;;;;;;16.40;85.61;101875.03;12990490;22;19953;-69
2023/06/27 02:33:12;;;;;;;;;;;;;;;16.31;85.33;101867.69;12989131;22;19993;-69
2023/06/27 02:38:15;;;;;;;;;;;;;;;16.36;86.71;101862.97;12989493;22;19998;-69
2023/06/27 02:43:17;;;;;;;;;;;;;;;16.56;82.92;101861.66;12990287;22;19986;-69
2023/06/27 02:48:19;;;;;;;;;;;;;;;16.42;84.94;101862.53;12990151;22;19927;-68
2023/06/27 02:53:21;;;;;;;;;;;;;;;16.06;88.68;101877.19;12989274;22;20419;-69
2023/06/27 02:58:24;;;;;;;;;;;;;;;16.24;85.28;101859.31;13033443;22;19919;-68
2023/06/27 03:03:26;;;;;;;;;;;;;;;16.07;89.60;101863.06;13053087;22;19946;-68
2023/06/27 03:08:30;;;;;;;;;;;;;;;16.16;88.19;101854.53;13025924;22;19919;-69
2023/06/27 03:13:32;;;;;;;;;;;;;;;16.16;86.21;101865.09;13052911;22;20311;-69
2023/06/27 03:18:34;;;;;;;;;;;;;;;16.07;88.98;101873.63;13053552;22;19919;-69
2023/06/27 03:23:36;;;;;;;;;;;;;;;16.05;89.02;101864.06;13026513;22;19986;-68
2023/06/27 03:28:40;;;;;;;;;;;;;;;15.79;92.61;101870.06;13053483;22;19999;-69
2023/06/27 03:33:42;;;;;;;;;;;;;;;16.08;90.64;101855.97;13053475;22;19991;-69
2023/06/27 03:38:45;;;;;;;;;;;;;;;16.13;88.54;101865.28;13053282;22;20002;-69
2023/06/27 03:43:47;;;;;;;;;;;;;;;16.17;89.05;101868.56;13055162;22;20343;-69
2023/06/27 03:48:53;;;;;;;;;;;;;;;16.29;86.24;101872.22;13057821;22;19919;-69
2023/06/27 03:53:55;;;;;;;;;;;;;;;15.92;92.88;101872.78;13057763;22;19939;-69
2023/06/27 03:58:57;;;;;;;;;;;;;;;16.41;88.83;101866.16;13056520;22;20269;-69
2023/06/27 04:03:59;;;;;;;;;;;;;;;16.23;88.85;101884.03;13056797;22;20324;-69
2023/06/27 04:09:05;;;;;;;;;;;;;;;15.93;92.45;101887.66;13057374;22;19925;-69
2023/06/27 04:14:07;;;;;;;;;;;;;;;16.27;90.20;101869.69;13057348;22;19919;-69
2023/06/27 04:19:09;;;;;;;;;;;;;;;16.44;90.60;101879.19;13057114;22;19997;-69
2023/06/27 04:24:11;;;;;;;;;;;;;;;16.75;86.78;101874.50;13057112;22;19946;-69
2023/06/27 04:29:14;;;;;;;;;;;;;;;16.30;91.93;101872.13;13056198;22;20325;-70
2023/06/27 04:34:16;;;;;;;;;;;;;;;16.26;90.64;101872.44;13056901;22;19995;-68
2023/06/27 04:39:19;;;;;;;;;;;;;;;16.39;94.41;101872.47;13056683;22;19925;-69
2023/06/27 04:44:21;;;;;;;;;;;;;;;16.59;91.53;101871.19;13055934;22;19919;-68
2023/06/27 04:49:23;;;;;;;;;;;;;;;16.19;96.09;101882.56;13055790;22;19925;-69
2023/06/27 04:54:25;;;;;;;;;;;;;;;16.52;92.27;101876.00;13055124;22;20363;-68
2023/06/27 04:59:28;;;;;;;;;;;;;;;16.56;91.18;101884.59;13055174;22;20313;-69
2023/06/27 05:04:30;;;;;;;;;;;;;;;16.51;91.63;101884.91;13056251;22;19923;-69
2023/06/27 05:09:33;;;;;;;;;;;;;;;16.58;90.18;101886.19;13056177;22;19919;-69
2023/06/27 05:14:35;;;;;;;;;;;;;;;16.83;92.28;101889.88;13056035;22;19998;-69
2023/06/27 05:19:37;;;;;;;;;;;;;;;16.63;92.40;101891.19;13055131;22;19951;-69
2023/06/27 05:24:39;;;;;;;;;;;;;;;16.49;93.21;101892.94;13028864;22;19919;-69
2023/06/27 05:29:41;;;;;;;;;;;;;;;16.41;95.03;101889.94;13055024;22;19961;-69
2023/06/27 05:34:44;;;;;;;;;;;;;;;16.24;94.53;101888.38;13055735;22;19925;-69
2023/06/27 05:39:48;;;;;;;;;;;;;;;16.57;92.61;101889.78;13054715;22;19942;-69
2023/06/27 05:44:50;;;;;;;;;;;;;;;16.52;94.94;101892.75;13055471;22;19931;-69
2023/06/27 05:49:53;;;;;;;;;;;;;;;16.65;95.17;101892.78;13055394;22;19919;-69
2023/06/27 05:54:55;;;;;;;;;;;;;;;16.85;91.19;101894.13;13055254;22;19942;-71
2023/06/27 05:59:57;;;;;;;;;;;;;;;16.67;94.06;101893.50;13054114;22;19962;-69
2023/06/27 06:05:00;;;;;;;;;;;;;;;17.04;95.56;101896.38;13054939;22;19925;-69
2023/06/27 06:10:03;;;;;;;;;;;;;;;17.10;91.84;101895.13;13054979;22;19982;-69
2023/06/27 06:15:05;;;;;;;;;;;;;;;17.25;93.30;101887.97;13054171;22;20010;-68
2023/06/27 06:20:09;;;;;;;;;;;;;;;17.27;90.86;101897.47;13053839;22;19962;-69
2023/06/27 06:25:11;;;;;;;;;;;;;;;17.50;90.47;101896.84;13053812;22;19954;-69
2023/06/27 06:30:14;;;;;;;;;;;;;;;17.71;90.76;101902.44;13053783;22;19919;-69
2023/06/27 06:35:17;;;;;;;;;;;;;;;17.54;90.38;101908.94;13027322;22;19925;-69
2023/06/27 06:40:19;;;;;;;;;;;;;;;17.97;87.79;101905.91;13053446;22;19962;-68
2023/06/27 06:45:21;;;;;;;;;;;;;;;18.28;85.73;101909.88;13054209;22;19925;-69
2023/06/27 06:50:23;;;;;;;;;;;;;;;18.35;83.53;101918.22;13054132;22;19982;-70
2023/06/27 06:55:26;;;;;;;;;;;;;;;18.87;80.44;101913.56;13053867;22;19947;-68
2023/06/27 07:00:28;;;;;;;;;;;;;;;18.99;79.56;101923.25;13053142;22;19965;-69
2023/06/27 07:05:30;;;;;;;;;;;;;;;18.87;77.61;101930.31;13053051;22;20431;-69
2023/06/27 07:10:32;;;;;;;;;;;;;;;19.24;77.03;101921.41;13053757;22;19925;-69
2023/06/27 07:15:35;;;;;;;;;;;;;;;19.55;75.98;101921.69;13026720;22;19919;-69
2023/06/27 07:20:37;;;;;;;;;;;;;;;19.91;72.41;101912.66;13026146;22;19925;-69
2023/06/27 07:25:39;;;;;;;;;;;;;;;20.46;69.06;101909.16;13053560;22;19965;-69
2023/06/27 07:30:45;;;;;;;;;;;;;;;21.32;64.95;101915.34;13053580;22;19977;-69
2023/06/27 07:35:47;;;;;;;;;;;;;;;21.89;64.18;101908.59;13053394;22;19919;-69
2023/06/27 07:40:50;;;;;;;;;;;;;;;21.54;64.27;101911.69;13053402;22;19985;-69
2023/06/27 07:45:53;;;;;;;;;;;;;;;21.48;64.13;101913.06;13052621;22;19919;-69
2023/06/27 07:50:55;;;;;;;;;;;;;;;21.29;62.25;101913.75;13025460;22;19951;-69
2023/06/27 07:55:57;;;;;;;;;;;;;;;21.87;61.48;101909.72;13052915;22;20315;-68
2023/06/27 08:01:00;;;;;;;;;;;;;;;22.13;60.55;101901.25;13052408;22;19919;-70
2023/06/27 08:06:05;;;;;;;;;;;;;;;22.95;60.94;101894.72;13052368;22;20217;-69
2023/06/27 08:11:07;;;;;;;;;;;;;;;22.29;60.64;101901.56;13025501;22;19959;-70
2023/06/27 08:16:09;;;;;;;;;;;;;;;24.02;56.71;101891.69;13052188;22;19989;-69
2023/06/27 08:21:11;;;;;;;;;;;;;;;23.63;54.86;101889.19;13025182;22;19919;-70
2023/06/27 08:26:15;;;;;;;;;;;;;;;24.39;52.94;101884.53;13052959;22;19986;-70
2023/06/27 08:31:17;;;;;;;;;;;;;;;24.35;53.84;101878.66;13055663;22;19981;-70
2023/06/27 08:36:20;;;;;;;;;;;;;;;22.98;55.96;101900.59;13056809;22;19919;-69
2023/06/27 08:41:22;;;;;;;;;;;;;;;22.85;55.34;101886.72;13056789;22;19926;-69
2023/06/27 08:46:24;;;;;;;;;;;;;;;22.38;57.07;101895.41;13056672;22;19919;-69
2023/06/27 08:51:26;;;;;;;;;;;;;;;22.15;55.80;101885.94;13056573;22;19919;-70
2023/06/27 08:56:28;;;;;;;;;;;;;;;21.92;56.09;101880.00;13029018;22;19968;-69
2023/06/27 09:01:31;;;;;;;;;;;;;;;22.38;55.59;101887.41;13055643;22;19923;-70
2023/06/27 09:06:33;;;;;;;;;;;;;;;23.05;55.11;101868.81;13056204;22;19968;-70
2023/06/27 09:11:35;;;;;;;;;;;;;;;24.07;50.49;101877.88;13056146;22;19982;-69
2023/06/27 09:16:38;;;;;;;;;;;;;;;23.28;51.69;101877.34;13055249;22;19918;-70
2023/06/27 09:21:40;;;;;;;;;;;;;;;23.10;54.23;101882.63;13028898;22;19919;-70
2023/06/27 09:26:42;;;;;;;;;;;;;;;22.96;53.34;101880.34;13055872;22;19985;-70
2023/06/27 09:31:44;;;;;;;;;;;;;;;22.82;54.56;101881.66;13055900;22;19988;-70
2023/06/27 09:36:47;;;;;;;;;;;;;;;24.28;51.21;101873.06;13028551;22;19919;-70
2023/06/27 09:41:52;;;;;;;;;;;;;;;24.88;47.05;101876.13;13054543;22;20320;-70
2023/06/27 09:46:54;;;;;;;;;;;;;;;24.81;49.29;101884.78;13054900;22;19926;-70
2023/06/27 09:51:57;;;;;;;;;;;;;;;24.75;48.15;101889.94;13028478;22;19926;-70
2023/06/27 09:56:59;;;;;;;;;;;;;;;24.29;48.67;101889.97;13027633;22;19997;-70
2023/06/27 10:02:02;;;;;;;;;;;;;;;23.45;49.09;101890.94;13055217;22;19919;-70
2023/06/27 10:07:04;;;;;;;;;;;;;;;24.10;47.58;101881.06;13054257;22;20014;-70
2023/06/27 10:12:07;;;;;;;;;;;;;;;23.07;49.35;101901.59;13054893;22;19919;-70
2023/06/27 10:17:11;;;;;;;;;;;;;;;23.08;51.21;101897.97;13054705;22;20066;-70
2023/06/27 10:22:14;;;;;;;;;;;;;;;23.09;51.51;101890.78;13053988;22;19919;-70
2023/06/27 10:27:24;;;;;;;;;;;;;;;23.50;50.23;101896.69;13027604;22;19985;-72
2023/06/27 10:32:35;;;;;;;;;;;;;;;24.52;48.90;101893.03;13026740;22;19953;-70
2023/06/27 10:37:42;;;;;;;;;;;;;;;24.05;49.40;101893.22;13053607;22;19919;-70
2023/06/27 10:42:44;;;;;;;;;;;;;;;22.85;52.46;101893.84;13053493;22;19950;-70
2023/06/27 10:47:47;;;;;;;;;;;;;;;23.24;51.51;101897.34;13026214;22;20403;-70
2023/06/27 10:53:00;;;;;;;;;;;;;;;22.42;51.49;101895.97;13026885;22;19918;-70
2023/06/27 10:58:13;;;;;;;;;;;;;;;22.77;50.65;101895.41;13025975;22;20382;-70
2023/06/27 11:03:18;;;;;;;;;;;;;;;23.17;52.59;101891.72;13053139;22;20015;-70
2023/06/27 11:08:21;;;;;;;;;;;;;;;25.39;46.80;101890.56;13053236;22;19968;-70
2023/06/27 11:13:24;;;;;;;;;;;;;;;24.83;44.72;101887.28;13025901;22;20009;-70
2023/06/27 11:18:27;;;;;;;;;;;;;;;25.04;44.55;101895.81;13025785;22;20241;-70
2023/06/27 11:23:29;;;;;;;;;;;;;;;24.53;47.23;101892.06;13052936;22;19997;-71
2023/06/27 11:28:31;;;;;;;;;;;;;;;25.80;44.85;101887.22;13053574;22;19923;-69
2023/06/27 11:33:34;;;;;;;;;;;;;;;24.26;47.35;101901.00;13053507;22;19919;-70
2023/06/27 11:38:36;;;;;;;;;;;;;;;23.49;48.42;101900.38;13025604;22;19994;-70
2023/06/27 11:43:44;;;;;;;;;;;;;;;24.42;48.92;101892.28;13053279;22;19918;-69
2023/06/27 11:48:46;;;;;;;;;;;;;;;24.26;47.94;101890.28;13052811;22;19997;-70
2023/06/27 11:53:49;;;;;;;;;;;;;;;25.02;45.49;101899.66;13052406;22;20018;-70
2023/06/27 11:58:56;;;;;;;;;;;;;;;25.81;44.14;101902.31;13052636;22;19993;-70
2023/06/27 12:03:59;;;;;;;;;;;;;;;27.45;42.05;101886.31;13054136;22;19968;-70
2023/06/27 12:09:01;;;;;;;;;;;;;;;26.54;42.62;101890.91;13056539;22;20279;-70
2023/06/27 12:14:03;;;;;;;;;;;;;;;27.10;41.32;101896.47;13056470;22;20001;-66
2023/06/27 12:19:08;;;;;;;;;;;;;;;28.57;40.94;101879.84;13029488;22;19926;-66
2023/06/27 12:24:10;;;;;;;;;;;;;;;26.82;42.23;101874.50;13056379;22;20225;-66
2023/06/27 12:29:12;;;;;;;;;;;;;;;25.10;43.94;101872.94;13057223;22;19994;-66
2023/06/27 12:34:14;;;;;;;;;;;;;;;26.38;43.30;101858.69;13057017;22;19926;-66
2023/06/27 12:39:17;;;;;;;;;;;;;;;27.36;40.74;101855.91;13056730;22;19997;-66
2023/06/27 12:44:19;;;;;;;;;;;;;;;25.34;41.60;101858.03;13055934;22;20423;-66
2023/06/27 12:49:21;;;;;;;;;;;;;;;25.79;41.97;101843.47;13029559;22;19926;-66
2023/06/27 12:54:23;;;;;;;;;;;;;;;26.10;42.38;101842.88;13056543;22;19919;-66
2023/06/27 12:59:26;;;;;;;;;;;;;;;25.38;42.89;101854.00;13055559;22;20014;-66
2023/06/27 13:04:30;;;;;;;;;;;;;;;27.30;42.40;101836.97;13055513;22;20255;-66
2023/06/27 13:09:32;;;;;;;;;;;;;;;27.72;40.14;101843.84;13056208;22;19953;-66
2023/06/27 13:14:34;;;;;;;;;;;;;;;25.33;43.69;101846.44;13028002;22;20306;-66
2023/06/27 13:19:36;;;;;;;;;;;;;;;24.56;44.68;101846.28;13054986;22;20338;-66
2023/06/27 13:24:39;;;;;;;;;;;;;;;25.28;44.52;101834.53;13028172;22;20391;-66
2023/06/27 13:29:41;;;;;;;;;;;;;;;25.04;44.32;101836.06;13028116;22;19925;-66
2023/06/27 13:34:44;;;;;;;;;;;;;;;26.22;43.76;101824.63;13054921;22;19919;-66
2023/06/27 13:39:46;;;;;;;;;;;;;;;24.99;43.97;101841.88;13055603;22;19993;-66
2023/06/27 13:44:48;;;;;;;;;;;;;;;24.81;45.04;101830.38;13028468;22;19990;-66
2023/06/27 13:49:50;;;;;;;;;;;;;;;25.68;44.80;101822.31;13055452;22;19923;-66
2023/06/27 13:54:52;;;;;;;;;;;;;;;25.21;45.74;101815.53;13055344;22;19922;-65
2023/06/27 13:59:55;;;;;;;;;;;;;;;25.06;44.77;101827.84;13028069;22;19919;-66
2023/06/27 14:04:57;;;;;;;;;;;;;;;24.67;45.91;101815.72;13055240;22;19925;-66
2023/06/27 14:09:59;;;;;;;;;;;;;;;24.64;46.71;101811.50;13054801;22;20290;-66
2023/06/27 14:15:03;;;;;;;;;;;;;;;24.40;45.53;101812.13;13054203;22;19945;-65
2023/06/27 14:20:07;;;;;;;;;;;;;;;24.36;46.02;101813.44;13054842;22;19925;-65
2023/06/27 14:25:10;;;;;;;;;;;;;;;24.13;45.40;101807.72;13027333;22;20045;-66
2023/06/27 14:30:12;;;;;;;;;;;;;;;24.27;44.51;101800.97;13053813;22;20419;-66
2023/06/27 14:35:14;;;;;;;;;;;;;;;24.13;45.32;101804.22;13053742;22;19926;-65
2023/06/27 14:40:17;;;;;;;;;;;;;;;24.33;45.79;101804.91;13054303;22;19925;-65
2023/06/27 14:45:19;;;;;;;;;;;;;;;23.64;46.27;101797.31;13054323;22;19919;-65
2023/06/27 14:50:21;;;;;;;;;;;;;;;23.96;46.78;101782.66;13053476;22;20329;-65
2023/06/27 14:55:23;;;;;;;;;;;;;;;24.16;46.57;101774.44;13053301;22;20314;-65
2023/06/27 15:00:26;;;;;;;;;;;;;;;24.37;47.33;101779.50;13053968;22;19950;-65
2023/06/27 15:05:28;;;;;;;;;;;;;;;23.88;47.71;101783.41;13053138;22;19939;-65
2023/06/27 15:10:30;;;;;;;;;;;;;;;23.52;48.29;101777.97;13053459;22;19919;-65
2023/06/27 15:15:32;;;;;;;;;;;;;;;23.58;48.26;101783.72;13052960;22;19950;-65
2023/06/27 15:20:35;;;;;;;;;;;;;;;23.27;48.32;101776.84;13053603;22;19997;-65
2023/06/27 15:25:37;;;;;;;;;;;;;;;23.44;48.01;101766.34;13052824;22;19919;-65
2023/06/27 15:30:39;;;;;;;;;;;;;;;23.45;47.66;101757.31;13053650;22;19943;-65
2023/06/27 15:35:42;;;;;;;;;;;;;;;24.11;45.84;101758.88;13053545;22;19954;-65
2023/06/27 15:40:45;;;;;;;;;;;;;;;23.47;46.18;101758.88;13052297;22;20332;-65
2023/06/27 15:45:47;;;;;;;;;;;;;;;23.85;47.25;101751.59;13053348;22;19990;-65
2023/06/27 15:50:49;;;;;;;;;;;;;;;23.19;47.35;101755.34;13052617;22;19950;-65
2023/06/27 15:55:52;;;;;;;;;;;;;;;23.45;47.50;101754.66;13053354;22;19919;-65
2023/06/27 16:00:54;;;;;;;;;;;;;;;23.69;47.93;101751.44;13052381;22;19950;-65
2023/06/27 16:05:56;;;;;;;;;;;;;;;23.09;46.69;101759.91;13052344;22;20295;-65
2023/06/27 16:10:58;;;;;;;;;;;;;;;22.74;47.26;101753.38;13052132;22;19919;-65
2023/06/27 16:16:01;;;;;;;;;;;;;;;23.01;47.29;101744.56;13053086;22;19986;-65
2023/06/27 16:21:03;;;;;;;;;;;;;;;23.25;46.66;101751.25;13052966;22;19954;-65
2023/06/27 16:26:05;;;;;;;;;;;;;;;22.82;47.87;101762.34;13052956;22;19990;-65
2023/06/27 16:31:08;;;;;;;;;;;;;;;22.43;47.63;101759.75;13025863;22;19919;-65
2023/06/27 16:36:10;;;;;;;;;;;;;;;22.20;48.18;101763.69;13052138;22;20291;-65
2023/06/27 16:41:14;;;;;;;;;;;;;;;22.36;47.88;101760.47;13052686;22;19918;-65
2023/06/27 16:46:16;;;;;;;;;;;;;;;22.29;47.87;101762.03;13051994;22;20000;-65
2023/06/27 16:51:19;;;;;;;;;;;;;;;22.20;47.74;101766.34;13053045;22;19946;-65
2023/06/27 16:56:22;;;;;;;;;;;;;;;22.16;47.92;101770.28;13056538;22;20332;-65
2023/06/27 17:01:24;;;;;;;;;;;;;;;21.84;48.19;101771.41;13055527;22;20355;-65
2023/06/27 17:06:27;;;;;;;;;;;;;;;22.07;48.89;101766.63;13056362;22;19939;-65
2023/06/27 17:11:29;;;;;;;;;;;;;;;22.25;49.28;101764.09;13028194;22;19990;-65
2023/06/27 17:16:31;;;;;;;;;;;;;;;22.34;49.19;101765.97;13029029;22;19986;-65
2023/06/27 17:21:34;;;;;;;;;;;;;;;21.89;49.46;101763.81;13055119;22;19918;-65
2023/06/27 17:26:36;;;;;;;;;;;;;;;22.06;49.96;101755.13;13055853;22;19926;-65
2023/06/27 17:31:38;;;;;;;;;;;;;;;21.74;50.08;101763.38;13055017;22;19941;-65
2023/06/27 17:36:41;;;;;;;;;;;;;;;21.58;50.52;101773.72;13054926;22;19923;-65
2023/06/27 17:41:43;;;;;;;;;;;;;;;21.52;49.60;101773.28;13055536;22;20001;-65
2023/06/27 17:46:45;;;;;;;;;;;;;;;21.45;50.30;101768.59;13054794;22;20327;-65
2023/06/27 17:51:47;;;;;;;;;;;;;;;21.22;49.61;101770.63;13055495;22;19981;-65
2023/06/27 17:56:50;;;;;;;;;;;;;;;21.25;50.25;101776.53;13054562;22;20306;-65
2023/06/27 18:01:53;;;;;;;;;;;;;;;21.22;51.75;101776.78;13027092;22;19994;-65
2023/06/27 18:06:55;;;;;;;;;;;;;;;20.97;52.12;101800.22;13055085;22;19925;-65
2023/06/27 18:11:57;;;;;;;;;;;;;;;21.11;52.95;101817.66;13027450;22;19990;-65
2023/06/27 18:17:00;;;;;;;;;;;;;;;20.97;52.49;101797.53;13054998;22;19986;-65
2023/06/27 18:22:05;;;;;;;;;;;;;;;21.19;52.24;101810.84;13054716;22;19993;-65
2023/06/27 18:27:07;;;;;;;;;;;;;;;21.23;53.09;101820.25;13054711;22;19982;-65
2023/06/27 18:32:09;;;;;;;;;;;;;;;21.26;53.05;101812.00;13054615;22;19947;-65
2023/06/27 18:37:12;;;;;;;;;;;;;;;21.11;53.46;101814.16;13054496;22;19922;-65
2023/06/27 18:42:14;;;;;;;;;;;;;;;21.02;54.27;101810.47;13053505;22;20355;-65
2023/06/27 18:47:16;;;;;;;;;;;;;;;20.95;53.94;101812.81;13053455;22;19925;-65
2023/06/27 18:52:19;;;;;;;;;;;;;;;20.93;53.87;101812.09;13054238;22;19982;-65
2023/06/27 18:57:21;;;;;;;;;;;;;;;20.77;54.00;101806.41;13053312;22;19919;-65
2023/06/27 19:02:23;;;;;;;;;;;;;;;20.44;54.78;101807.38;13053109;22;20037;-65
2023/06/27 19:07:26;;;;;;;;;;;;;;;20.56;54.44;101812.53;13053884;22;19919;-68
2023/06/27 19:12:28;;;;;;;;;;;;;;;20.41;54.82;101817.31;13052623;22;19923;-65
2023/06/27 19:17:31;;;;;;;;;;;;;;;19.93;56.36;101825.69;13053460;22;19982;-65
2023/06/27 19:22:33;;;;;;;;;;;;;;;19.93;56.07;101824.84;13053695;22;19923;-65
2023/06/27 19:27:35;;;;;;;;;;;;;;;20.07;55.77;101818.41;13053567;22;19922;-65
2023/06/27 19:32:41;;;;;;;;;;;;;;;20.30;55.52;101817.34;13053505;22;19991;-66
2023/06/27 19:37:43;;;;;;;;;;;;;;;20.41;56.10;101821.81;13026333;22;20319;-65
2023/06/27 19:42:45;;;;;;;;;;;;;;;20.32;56.37;101820.72;13053589;22;19919;-65
2023/06/27 19:47:47;;;;;;;;;;;;;;;20.18;56.46;101813.06;13053365;22;19918;-65
2023/06/27 19:52:50;;;;;;;;;;;;;;;19.94;56.93;101815.88;13052501;22;20393;-65
2023/06/27 19:57:54;;;;;;;;;;;;;;;19.89;57.52;101813.63;13052375;22;22255;-65
2023/06/27 20:02:57;;;;;;;;;;;;;;;19.91;59.08;101817.00;13053191;22;19918;-65
2023/06/27 20:07:59;;;;;;;;;;;;;;;19.76;58.93;101812.94;13052331;22;20229;-65
2023/06/27 20:13:02;;;;;;;;;;;;;;;19.39;59.71;101821.13;13052098;22;20317;-65
2023/06/27 20:18:05;;;;;;;;;;;;;;;19.43;61.42;101811.94;13052125;22;20399;-65
2023/06/27 20:23:08;;;;;;;;;;;;;;;19.49;62.01;101820.28;13052933;22;19942;-65
2023/06/27 20:28:11;;;;;;;;;;;;;;;19.39;63.05;101824.63;13029424;22;20320;-65
2023/06/27 20:33:13;;;;;;;;;;;;;;;19.44;62.60;101821.63;13057005;22;19942;-65
2023/06/27 20:38:16;;;;;;;;;;;;;;;19.40;63.62;101820.16;13056083;22;19950;-65
2023/06/27 20:43:18;;;;;;;;;;;;;;;19.42;63.88;101813.75;13029013;22;19926;-65
2023/06/27 20:48:22;;;;;;;;;;;;;;;19.07;67.28;101814.72;13055810;22;20294;-65
2023/06/27 20:53:24;;;;;;;;;;;;;;;18.94;69.31;101816.63;13029514;22;19918;-65
2023/06/27 20:58:27;;;;;;;;;;;;;;;18.69;70.23;101821.13;13055659;22;19919;-65
2023/06/27 21:03:29;;;;;;;;;;;;;;;18.72;72.23;101825.34;13055588;22;20355;-65
2023/06/27 21:08:31;;;;;;;;;;;;;;;18.63;69.98;101820.75;13056294;22;19918;-65
2023/06/27 21:13:33;;;;;;;;;;;;;;;18.68;71.17;101822.06;13055382;22;19929;-65
2023/06/27 21:18:36;;;;;;;;;;;;;;;18.50;73.03;101818.16;13055193;22;19980;-65
2023/06/27 21:23:38;;;;;;;;;;;;;;;18.31;75.21;101816.88;13055823;22;19949;-65
2023/06/27 21:28:40;;;;;;;;;;;;;;;18.23;74.95;101815.75;13055042;22;20232;-65
2023/06/27 21:33:42;;;;;;;;;;;;;;;18.45;73.86;101817.66;13055868;22;19943;-65
2023/06/27 21:38:45;;;;;;;;;;;;;;;18.13;75.19;101811.13;13055459;22;19925;-64
2023/06/27 21:43:47;;;;;;;;;;;;;;;18.11;74.73;101812.22;13055612;22;19986;-65
2023/06/27 21:48:51;;;;;;;;;;;;;;;18.14;76.92;101817.25;13054708;22;20010;-65
2023/06/27 21:53:53;;;;;;;;;;;;;;;17.98;79.82;101810.44;13054626;22;19923;-64
2023/06/27 21:58:55;;;;;;;;;;;;;;;17.96;80.96;101811.50;13055183;22;20001;-66
2023/06/27 22:03:58;;;;;;;;;;;;;;;18.05;80.72;101808.19;13054413;22;19919;-66
2023/06/27 22:09:00;;;;;;;;;;;;;;;17.68;80.66;101799.38;13054234;22;19953;-65
2023/06/27 22:14:02;;;;;;;;;;;;;;;17.75;79.14;101795.31;13054050;22;19946;-65
2023/06/27 22:19:05;;;;;;;;;;;;;;;17.95;75.56;101800.06;13053946;22;20328;-65
2023/06/27 22:24:07;;;;;;;;;;;;;;;17.58;78.45;101796.53;13053969;22;20247;-65
2023/06/27 22:29:09;;;;;;;;;;;;;;;17.70;78.19;101798.31;13027544;22;19919;-65
2023/06/27 22:34:11;;;;;;;;;;;;;;;17.61;77.77;101793.69;13054610;22;19994;-65
2023/06/27 22:39:13;;;;;;;;;;;;;;;17.55;79.89;101794.09;13053551;22;20005;-65
2023/06/27 22:44:16;;;;;;;;;;;;;;;17.42;81.37;101802.09;13053582;22;20341;-65
2023/06/27 22:49:18;;;;;;;;;;;;;;;17.59;81.11;101804.38;13054159;22;19943;-65
2023/06/27 22:54:20;;;;;;;;;;;;;;;17.44;80.20;101806.31;13026397;22;20332;-65
2023/06/27 22:59:22;;;;;;;;;;;;;;;17.60;77.85;101807.84;13053168;22;20296;-65
2023/06/27 23:04:25;;;;;;;;;;;;;;;17.30;81.75;101809.09;13053182;22;19950;-65
2023/06/27 23:09:27;;;;;;;;;;;;;;;17.18;78.51;101800.22;13053869;22;19919;-65
2023/06/27 23:14:29;;;;;;;;;;;;;;;17.26;78.78;101803.16;13052849;22;19919;-65
2023/06/27 23:19:34;;;;;;;;;;;;;;;17.45;77.27;101801.88;13053625;22;19918;-65
2023/06/27 23:24:36;;;;;;;;;;;;;;;17.39;78.35;101797.00;13053662;22;19926;-65
2023/06/27 23:29:40;;;;;;;;;;;;;;;17.21;80.11;101807.91;13053609;22;19945;-65
2023/06/27 23:34:42;;;;;;;;;;;;;;;17.33;78.45;101798.28;13025931;22;20331;-65
2023/06/27 23:39:45;;;;;;;;;;;;;;;17.25;78.22;101797.97;13053361;22;19919;-65
2023/06/27 23:44:47;;;;;;;;;;;;;;;17.25;77.07;101798.81;13053456;22;19942;-66
2023/06/27 23:49:49;;;;;;;;;;;;;;;17.55;76.19;101799.41;13053333;22;19946;-66
2023/06/27 23:54:52;;;;;;;;;;;;;;;17.29;78.32;101801.25;13052541;22;19994;-66
2023/06/27 23:59:54;;;;;;;;;;;;;;;17.34;78.25;101785.91;13053256;22;20009;-65
